Time;durP1;ratioP1;P1;durP2;ratioP2;P2;SDS_P1;SDS_P2;PMS_P1;PMS_P2;Temp;Humidity;BMP_temperature;BMP_pressure;BME280_temperature;BME280_humidity;BME280_pressure;Samples;Min_cycle;Max_cycle;Signal;HPM_P1;HPM_P2
2023/05/07 00:02:08;;;;;;;0.68;0.68;;;;;;;22.16;49.66;100647.72;4552603;28;20036;-62
2023/05/07 00:04:19;;;;;;;0.60;0.60;;;;;;;22.21;49.46;100661.78;4553472;27;20029;-62
2023/05/07 00:06:30;;;;;;;1.00;0.70;;;;;;;22.20;49.48;100656.41;4552384;28;20028;-62
2023/05/07 00:08:40;;;;;;;0.88;0.70;;;;;;;22.12;49.48;100643.91;4552447;28;20576;-62
2023/05/07 00:10:50;;;;;;;1.08;0.80;;;;;;;22.20;49.42;100657.25;4553123;28;20044;-62
2023/05/07 00:13:01;;;;;;;0.60;0.60;;;;;;;22.18;49.65;100656.78;4533752;28;20555;-63
2023/05/07 00:15:11;;;;;;;0.70;0.70;;;;;;;22.19;49.87;100660.50;4550901;27;20036;-63
2023/05/07 00:17:22;;;;;;;0.65;0.65;;;;;;;22.19;49.71;100663.38;4550359;28;20908;-63
2023/05/07 00:19:32;;;;;;;0.50;0.50;;;;;;;22.20;49.60;100674.50;4551738;28;20588;-63
2023/05/07 00:21:43;;;;;;;0.75;0.60;;;;;;;22.18;49.80;100676.91;4554067;28;20047;-63
2023/05/07 00:23:54;;;;;;;0.70;0.70;;;;;;;22.18;49.58;100670.34;4553210;28;20040;-63
2023/05/07 00:26:04;;;;;;;0.70;0.70;;;;;;;22.18;49.69;100664.59;4553228;28;20594;-63
2023/05/07 00:28:15;;;;;;;0.70;0.70;;;;;;;22.19;49.37;100664.22;4549791;28;20171;-63
2023/05/07 00:30:25;;;;;;;0.82;0.80;;;;;;;22.16;49.53;100656.34;4534487;28;20033;-62
2023/05/07 00:32:36;;;;;;;0.80;0.80;;;;;;;22.17;49.44;100665.78;4552699;28;20043;-62
2023/05/07 00:34:47;;;;;;;0.77;0.70;;;;;;;22.17;49.39;100662.91;4552456;28;20043;-62
2023/05/07 00:36:57;;;;;;;0.95;0.95;;;;;;;22.16;49.13;100662.09;4551822;28;20041;-63
2023/05/07 00:39:07;;;;;;;0.80;0.80;;;;;;;22.16;49.39;100652.63;4525323;28;20108;-63
2023/05/07 00:41:18;;;;;;;0.90;0.80;;;;;;;22.16;48.91;100653.47;4541364;28;20131;-62
2023/05/07 00:43:29;;;;;;;0.88;0.88;;;;;;;22.17;48.78;100655.13;4549668;28;20028;-63
2023/05/07 00:45:40;;;;;;;0.80;0.80;;;;;;;22.15;48.69;100651.78;4538068;28;21648;-63
2023/05/07 00:47:50;;;;;;;0.93;0.82;;;;;;;22.15;48.96;100656.72;4552108;28;20040;-62
2023/05/07 00:50:00;;;;;;;0.90;0.90;;;;;;;22.17;48.88;100658.00;4550840;28;20047;-63
2023/05/07 00:52:15;;;;;;;0.90;0.90;;;;;;;22.13;48.65;100645.59;4551851;28;20023;-62
2023/05/07 00:54:25;;;;;;;0.85;0.85;;;;;;;22.16;48.70;100656.34;4552083;28;20037;-63
2023/05/07 00:56:36;;;;;;;0.90;0.80;;;;;;;22.12;48.47;100641.03;4530767;28;20478;-63
2023/05/07 00:58:47;;;;;;;1.92;0.82;;;;;;;22.17;48.81;100652.25;4551949;28;20036;-63
2023/05/07 01:00:57;;;;;;;0.88;0.88;;;;;;;22.15;48.52;100646.03;4550421;28;20136;-63
2023/05/07 01:03:09;;;;;;;0.80;0.80;;;;;;;22.14;48.23;100647.25;4549511;28;20075;-63
2023/05/07 01:05:23;;;;;;;0.85;0.80;;;;;;;22.13;48.25;100639.84;4550750;28;20029;-63
2023/05/07 01:07:35;;;;;;;0.70;0.70;;;;;;;22.16;48.35;100647.72;4553198;28;20025;-63
2023/05/07 01:09:45;;;;;;;0.88;0.80;;;;;;;22.13;48.25;100639.84;4552169;28;20095;-62
2023/05/07 01:11:58;;;;;;;0.90;0.90;;;;;;;22.02;48.24;100624.38;4531712;28;20088;-63
2023/05/07 01:14:09;;;;;;;0.88;0.88;;;;;;;22.16;48.01;100641.97;4552583;28;20037;-63
2023/05/07 01:16:20;;;;;;;1.50;1.10;;;;;;;22.13;48.08;100645.59;4535306;28;20040;-63
2023/05/07 01:18:30;;;;;;;1.65;1.02;;;;;;;21.96;47.91;100622.22;4551779;28;20044;-63
2023/05/07 01:20:41;;;;;;;1.52;1.10;;;;;;;22.13;47.99;100639.84;4549541;28;20039;-62
2023/05/07 01:22:53;;;;;;;1.33;1.23;;;;;;;22.14;47.95;100647.25;4523473;28;20035;-63
2023/05/07 01:25:05;;;;;;;1.40;1.30;;;;;;;22.15;47.98;100657.53;4533525;28;20041;-63
2023/05/07 01:27:16;;;;;;;1.60;1.50;;;;;;;22.15;47.75;100654.66;4533723;28;20151;-63
2023/05/07 01:29:28;;;;;;;1.50;1.40;;;;;;;22.14;47.61;100661.63;4539402;28;20777;-63
2023/05/07 01:31:41;;;;;;;1.50;1.40;;;;;;;22.11;47.49;100653.75;4539206;28;20068;-62
2023/05/07 01:33:53;;;;;;;1.80;1.70;;;;;;;22.13;47.58;100656.25;4539668;28;20586;-63
2023/05/07 01:36:06;;;;;;;1.92;1.80;;;;;;;22.15;47.66;100653.84;4552499;28;20555;-63
2023/05/07 01:38:18;;;;;;;1.75;1.65;;;;;;;22.14;47.12;100644.38;4531822;28;20513;-63
2023/05/07 01:40:28;;;;;;;1.88;1.77;;;;;;;22.11;47.57;100636.53;4552151;28;20119;-63
2023/05/07 01:42:41;;;;;;;1.90;1.80;;;;;;;22.13;47.54;100645.59;4536867;28;20132;-63
2023/05/07 01:44:51;;;;;;;1.92;1.77;;;;;;;22.13;47.64;100653.38;4550801;28;20036;-62
2023/05/07 01:47:03;;;;;;;1.92;1.83;;;;;;;22.10;47.51;100646.34;4533179;28;20033;-62
2023/05/07 01:49:14;;;;;;;2.15;1.80;;;;;;;22.11;47.23;100650.06;4540398;28;20025;-63
2023/05/07 01:51:26;;;;;;;2.10;1.90;;;;;;;22.12;47.27;100643.91;4532244;28;20059;-62
2023/05/07 01:53:37;;;;;;;2.03;1.83;;;;;;;22.10;47.70;100643.47;4550865;28;20124;-62
2023/05/07 01:55:47;;;;;;;2.13;1.92;;;;;;;22.08;47.13;100637.28;4552180;28;20040;-63
2023/05/07 01:57:59;;;;;;;2.25;1.88;;;;;;;22.14;47.19;100637.78;4550728;28;20029;-62
2023/05/07 02:00:10;;;;;;;2.08;1.98;;;;;;;22.13;47.12;100644.75;4523567;28;20536;-63
2023/05/07 02:02:26;;;;;;;2.45;2.25;;;;;;;22.10;47.05;100646.34;4550920;28;20044;-63
2023/05/07 02:04:40;;;;;;;2.13;1.92;;;;;;;22.09;47.25;100629.47;4549049;28;20056;-63
2023/05/07 02:06:50;;;;;;;2.20;2.00;;;;;;;22.07;47.50;100629.03;4531011;28;20508;-63
2023/05/07 02:09:01;;;;;;;2.13;1.92;;;;;;;22.09;47.21;100632.34;4549952;28;20488;-62
2023/05/07 02:11:12;;;;;;;2.30;2.10;;;;;;;22.11;47.32;100638.56;4530657;28;20890;-63
2023/05/07 02:13:24;;;;;;;2.30;2.10;;;;;;;22.12;47.12;100646.78;4536157;28;20037;-63
2023/05/07 02:15:35;;;;;;;2.58;2.38;;;;;;;22.12;47.41;100640.19;4528227;28;20100;-62
2023/05/07 02:18:04;;;;;;;2.50;2.30;;;;;;;22.11;46.97;100653.75;4555864;28;20103;-63
2023/05/07 02:20:15;;;;;;;2.53;2.30;;;;;;;22.08;46.92;100650.81;4537206;28;20120;-63
2023/05/07 02:22:26;;;;;;;2.40;2.20;;;;;;;22.10;46.75;100646.34;4543994;28;20033;-63
2023/05/07 02:24:36;;;;;;;2.70;2.30;;;;;;;22.11;46.97;100656.63;4555796;28;20059;-63
2023/05/07 02:26:47;;;;;;;2.60;2.40;;;;;;;22.12;47.27;100651.69;4538985;28;20036;-63
2023/05/07 02:28:57;;;;;;;2.85;2.38;;;;;;;22.10;46.83;100654.97;4521037;28;20624;-63
2023/05/07 02:31:08;;;;;;;2.20;2.00;;;;;;;22.08;47.08;100654.53;4542259;28;20449;-62
2023/05/07 02:33:19;;;;;;;2.40;2.20;;;;;;;22.04;47.02;100647.84;4538372;28;20029;-63
2023/05/07 02:35:30;;;;;;;2.58;2.38;;;;;;;22.07;47.12;100647.09;4541636;28;20536;-63
2023/05/07 02:37:40;;;;;;;2.80;2.40;;;;;;;22.10;47.01;100666.44;4553656;28;20049;-62
2023/05/07 02:39:51;;;;;;;2.85;2.60;;;;;;;22.08;47.05;100660.28;4542828;28;20037;-62
2023/05/07 02:42:02;;;;;;;3.67;2.55;;;;;;;22.07;46.89;100658.59;4556883;28;20063;-62
2023/05/07 02:44:12;;;;;;;2.72;2.53;;;;;;;22.07;46.99;100652.84;4539263;28;20155;-63
2023/05/07 02:46:23;;;;;;;2.90;2.60;;;;;;;22.05;46.79;100654.44;4539909;28;20052;-63
2023/05/07 02:48:42;;;;;;;2.75;2.53;;;;;;;22.07;47.02;100663.53;4539601;28;20600;-63
2023/05/07 02:50:52;;;;;;;3.00;2.72;;;;;;;22.02;46.92;100666.69;4545341;28;20531;-63
2023/05/07 02:53:03;;;;;;;3.13;2.78;;;;;;;22.04;46.99;100667.97;4557862;28;20135;-62
2023/05/07 02:55:14;;;;;;;3.05;2.75;;;;;;;22.07;47.06;100664.34;4555688;27;20124;-63
2023/05/07 02:57:24;;;;;;;3.63;2.80;;;;;;;22.02;46.66;100661.75;4536902;28;20037;-63
2023/05/07 02:59:35;;;;;;;3.20;2.90;;;;;;;22.07;46.59;100663.53;4544456;28;20036;-63
2023/05/07 03:01:46;;;;;;;3.03;2.72;;;;;;;22.07;46.30;100664.34;4538453;28;20928;-63
2023/05/07 03:03:57;;;;;;;3.15;2.70;;;;;;;22.00;46.56;100649.81;4554692;27;20029;-63
2023/05/07 03:06:07;;;;;;;3.08;2.78;;;;;;;22.07;46.37;100658.59;4545016;28;20086;-63
2023/05/07 03:08:18;;;;;;;2.95;2.70;;;;;;;22.00;46.57;100646.09;4555541;28;20021;-63
2023/05/07 03:10:28;;;;;;;3.13;2.78;;;;;;;21.97;46.13;100641.94;4543186;28;20048;-63
2023/05/07 03:12:41;;;;;;;3.13;2.83;;;;;;;22.07;46.23;100652.84;4556774;28;20133;-63
2023/05/07 03:14:54;;;;;;;3.72;3.05;;;;;;;22.05;45.88;100649.53;4546899;28;20114;-63
2023/05/07 03:17:05;;;;;;;3.28;2.97;;;;;;;22.03;45.79;100637.56;4534473;28;20123;-63
2023/05/07 03:19:16;;;;;;;3.20;2.90;;;;;;;22.06;45.94;100656.94;4555582;28;20064;-63
2023/05/07 03:21:26;;;;;;;3.10;2.80;;;;;;;22.06;45.83;100656.09;4556422;28;20489;-63
2023/05/07 03:23:37;;;;;;;3.42;3.13;;;;;;;22.02;46.01;100655.19;4541241;28;20052;-63
2023/05/07 03:25:47;;;;;;;3.10;2.80;;;;;;;22.04;45.65;100664.28;4551901;28;20045;-63
2023/05/07 03:27:58;;;;;;;3.22;2.83;;;;;;;22.05;45.96;100652.41;4524380;28;20037;-63
2023/05/07 03:30:14;;;;;;;3.33;3.03;;;;;;;22.05;45.80;100655.28;4525200;28;20131;-63
2023/05/07 03:32:25;;;;;;;3.17;2.88;;;;;;;22.00;45.53;100652.69;4533831;28;20787;-63
2023/05/07 03:34:35;;;;;;;4.60;3.10;;;;;;;22.05;45.38;100663.91;4552841;27;20056;-63
2023/05/07 03:36:46;;;;;;;3.38;3.08;;;;;;;22.04;45.30;100659.34;4536533;28;20092;-62
2023/05/07 03:38:57;;;;;;;3.40;3.10;;;;;;;22.03;45.46;100669.19;4533677;28;20032;-63
2023/05/07 03:41:12;;;;;;;3.33;3.03;;;;;;;22.03;45.62;100666.31;4541815;28;20067;-63
2023/05/07 03:43:23;;;;;;;3.70;3.10;;;;;;;22.03;45.66;100662.59;4525011;28;20036;-63
2023/05/07 03:45:40;;;;;;;2.95;2.75;;;;;;;22.05;45.72;100660.19;4542443;28;20069;-65
2023/05/07 03:47:58;;;;;;;3.80;2.70;;;;;;;22.02;45.58;100661.75;4534487;28;21609;-66
2023/05/07 03:50:10;;;;;;;3.30;3.00;;;;;;;22.01;45.14;100671.59;4551623;28;20044;-64
2023/05/07 03:52:24;;;;;;;3.20;2.90;;;;;;;22.04;45.60;100676.59;4533039;28;20021;-65
2023/05/07 03:54:35;;;;;;;3.70;3.10;;;;;;;22.01;45.39;100674.47;4531360;28;20048;-64
2023/05/07 03:56:45;;;;;;;3.53;3.22;;;;;;;21.98;45.42;100672.34;4534205;28;20642;-63
2023/05/07 03:58:56;;;;;;;3.35;3.05;;;;;;;22.01;45.13;100683.09;4534475;28;20599;-63
2023/05/07 04:01:07;;;;;;;3.20;2.90;;;;;;;22.00;45.31;100669.94;4519159;28;20101;-62
2023/05/07 04:03:17;;;;;;;3.35;3.05;;;;;;;22.02;45.00;100679.00;4550195;28;20059;-63
2023/05/07 04:05:28;;;;;;;3.38;3.08;;;;;;;22.01;45.23;100677.34;4550801;28;20033;-63
2023/05/07 04:07:42;;;;;;;3.33;3.03;;;;;;;21.99;45.37;100688.38;4535791;28;20065;-63
2023/05/07 04:09:55;;;;;;;3.40;3.10;;;;;;;22.00;44.90;100684.31;4535469;28;20045;-63
2023/05/07 04:12:05;;;;;;;3.28;2.97;;;;;;;21.95;44.95;100678.84;4550132;28;20032;-63
2023/05/07 04:14:16;;;;;;;3.40;3.10;;;;;;;22.00;45.14;100692.94;4551135;28;20059;-63
2023/05/07 04:16:26;;;;;;;3.40;3.10;;;;;;;22.02;45.15;100699.13;4535794;28;20021;-63
2023/05/07 04:18:37;;;;;;;3.63;3.10;;;;;;;21.99;44.66;100685.50;4553955;28;20270;-63
2023/05/07 04:20:51;;;;;;;3.90;2.95;;;;;;;21.97;44.77;100685.06;4549624;28;20056;-63
2023/05/07 04:23:02;;;;;;;3.50;3.20;;;;;;;22.00;44.98;100701.56;4535947;28;20067;-63
2023/05/07 04:25:13;;;;;;;3.70;3.40;;;;;;;22.00;45.02;100695.81;4540410;28;20724;-63
2023/05/07 04:27:24;;;;;;;0.50;0.50;;;;;;;22.11;47.18;100699.75;4532981;28;20057;-63
2023/05/07 04:29:34;;;;;;;0.30;0.30;;;;;;;22.15;47.62;100689.16;4534821;28;20474;-63
2023/05/07 04:31:46;;;;;;;0.63;0.63;;;;;;;22.15;45.80;100706.41;4548782;28;20044;-63
2023/05/07 04:33:57;;;;;;;3.60;3.25;;;;;;;22.05;45.58;100707.03;4535137;28;20037;-63
2023/05/07 04:36:07;;;;;;;3.55;3.08;;;;;;;21.99;45.15;100702.75;4537090;28;20481;-63
2023/05/07 04:38:24;;;;;;;3.65;2.97;;;;;;;22.02;45.21;100713.47;4532085;28;20063;-62
2023/05/07 04:40:36;;;;;;;3.42;3.13;;;;;;;21.92;44.75;100702.59;4533447;28;20041;-63
2023/05/07 04:42:47;;;;;;;4.20;3.40;;;;;;;22.02;44.73;100718.44;4549083;28;20091;-63
2023/05/07 04:44:58;;;;;;;0.50;0.43;;;;;;;22.11;47.07;100722.75;4550931;28;20106;-63
2023/05/07 04:47:08;;;;;;;2.60;2.40;;;;;;;22.08;44.85;100717.75;4532985;28;20077;-63
2023/05/07 04:49:19;;;;;;;4.32;3.30;;;;;;;22.03;45.11;100708.59;4532814;28;20087;-63
2023/05/07 04:51:32;;;;;;;3.67;3.38;;;;;;;21.99;44.60;100708.50;4530550;28;20261;-63
2023/05/07 04:53:43;;;;;;;3.08;2.63;;;;;;;22.04;45.98;100705.31;4533102;28;20025;-63
2023/05/07 04:55:57;;;;;;;0.88;0.30;;;;;;;22.16;47.21;100713.84;4535958;28;20045;-63
2023/05/07 04:58:09;;;;;;;0.47;0.30;;;;;;;22.23;47.42;100703.72;4540376;28;20254;-62
2023/05/07 05:00:21;;;;;;;0.20;0.20;;;;;;;22.26;47.39;100706.69;4533449;28;20095;-63
2023/05/07 05:02:33;;;;;;;2.58;2.38;;;;;;;22.10;45.86;100709.56;4536547;28;20060;-63
2023/05/07 05:04:44;;;;;;;4.65;3.63;;;;;;;21.98;45.15;100698.22;4539404;28;20493;-63
2023/05/07 05:06:54;;;;;;;3.80;3.40;;;;;;;22.02;45.36;100716.34;4550836;28;20032;-63
2023/05/07 05:09:05;;;;;;;3.80;3.40;;;;;;;21.98;44.66;100706.84;4533178;28;20124;-62
2023/05/07 05:11:16;;;;;;;4.10;3.70;;;;;;;21.85;44.58;100690.91;4538548;28;20155;-61
2023/05/07 05:13:27;;;;;;;3.92;3.50;;;;;;;22.00;44.53;100721.66;4541372;28;20052;-61
2023/05/07 05:15:38;;;;;;;1.55;1.45;;;;;;;22.02;46.39;100713.47;4541800;28;20025;-61
2023/05/07 05:17:49;;;;;;;0.38;0.35;;;;;;;22.10;46.93;100721.06;4551582;28;20037;-62
2023/05/07 05:19:59;;;;;;;3.30;3.00;;;;;;;22.01;45.23;100729.06;4533233;28;20037;-61
2023/05/07 05:22:10;;;;;;;0.40;0.40;;;;;;;22.13;47.24;100728.13;4532141;28;20033;-61
2023/05/07 05:24:20;;;;;;;0.30;0.30;;;;;;;22.19;47.08;100735.25;4534485;28;20777;-61
2023/05/07 05:26:31;;;;;;;0.20;0.20;;;;;;;22.16;47.38;100731.09;4533847;28;20071;-61
2023/05/07 05:28:42;;;;;;;0.25;0.20;;;;;;;22.27;47.41;100739.97;4532514;28;20159;-61
2023/05/07 05:30:52;;;;;;;0.30;0.30;;;;;;;22.27;47.25;100747.75;4535826;28;20052;-61
2023/05/07 05:33:03;;;;;;;0.32;0.32;;;;;;;22.16;47.15;100739.72;4550997;28;20036;-62
2023/05/07 05:35:14;;;;;;;4.03;3.63;;;;;;;22.06;45.96;100737.41;4536230;28;20033;-61
2023/05/07 05:37:26;;;;;;;3.88;3.40;;;;;;;22.01;45.23;100731.09;4536993;28;20548;-61
2023/05/07 05:39:37;;;;;;;4.50;3.63;;;;;;;22.00;44.57;100727.41;4540748;28;20131;-61
2023/05/07 05:41:49;;;;;;;4.05;3.60;;;;;;;21.99;44.71;100737.22;4541165;28;20635;-61
2023/05/07 05:43:59;;;;;;;3.88;3.47;;;;;;;21.98;44.67;100741.31;4530857;28;20164;-61
2023/05/07 05:46:11;;;;;;;4.10;3.70;;;;;;;21.98;44.99;100737.59;4532758;28;20474;-61
2023/05/07 05:48:22;;;;;;;0.38;0.38;;;;;;;22.10;47.51;100737.50;4532846;28;20036;-61
2023/05/07 05:50:35;;;;;;;0.98;0.22;;;;;;;22.18;47.17;100751.66;4524590;28;20063;-61
2023/05/07 05:52:46;;;;;;;0.30;0.30;;;;;;;22.23;47.42;100748.50;4525264;28;20112;-61
2023/05/07 05:54:56;;;;;;;0.40;0.40;;;;;;;22.21;47.20;100742.28;4529609;28;20076;-61
2023/05/07 05:57:07;;;;;;;0.30;0.30;;;;;;;22.23;47.61;100741.09;4532118;28;20068;-62
2023/05/07 05:59:17;;;;;;;0.28;0.28;;;;;;;22.25;47.09;100732.94;4535858;28;20044;-62
2023/05/07 06:01:28;;;;;;;0.30;0.30;;;;;;;22.27;47.21;100744.88;4532578;28;20128;-62
2023/05/07 06:03:40;;;;;;;0.30;0.30;;;;;;;22.29;47.17;100751.09;4551632;28;20575;-62
2023/05/07 06:05:57;;;;;;;0.63;0.43;;;;;;;22.27;47.76;100737.09;4533203;28;20033;-62
2023/05/07 06:08:07;;;;;;;0.30;0.30;;;;;;;22.28;47.09;100744.50;4534715;28;20032;-62
2023/05/07 06:10:19;;;;;;;0.30;0.30;;;;;;;22.30;47.52;100747.84;4534452;28;20524;-62
2023/05/07 06:12:30;;;;;;;0.30;0.30;;;;;;;22.29;47.50;100745.34;4534090;28;20430;-62
2023/05/07 06:14:43;;;;;;;0.40;0.35;;;;;;;22.32;47.30;100748.31;4549315;28;20041;-62
2023/05/07 06:16:53;;;;;;;0.35;0.35;;;;;;;22.28;47.31;100741.63;4550712;28;20850;-62
2023/05/07 06:19:03;;;;;;;0.30;0.30;;;;;;;22.21;47.07;100742.28;4550808;28;20063;-62
2023/05/07 06:21:15;;;;;;;3.65;3.35;;;;;;;22.02;46.49;100732.78;4551860;28;20028;-62
2023/05/07 06:23:25;;;;;;;4.43;3.88;;;;;;;22.02;45.43;100741.41;4532020;28;20061;-62
2023/05/07 06:25:36;;;;;;;4.07;3.67;;;;;;;22.01;44.97;100746.31;4532552;28;20559;-62
2023/05/07 06:27:47;;;;;;;4.15;3.75;;;;;;;21.98;44.84;100747.06;4531877;28;20032;-62
2023/05/07 06:29:57;;;;;;;4.00;3.53;;;;;;;21.97;45.02;100756.91;4548964;28;20453;-62
2023/05/07 06:32:12;;;;;;;0.52;0.45;;;;;;;22.08;47.72;100757.16;4552060;28;20124;-62
2023/05/07 06:34:26;;;;;;;3.10;2.80;;;;;;;22.05;45.05;100760.78;4524808;28;20025;-64
2023/05/07 06:36:36;;;;;;;4.32;3.85;;;;;;;21.99;45.06;100757.34;4550337;28;20040;-62
2023/05/07 06:38:55;;;;;;;3.88;3.47;;;;;;;21.99;45.05;100770.91;4533140;28;20033;-63
2023/05/07 06:41:07;;;;;;;4.05;3.65;;;;;;;21.98;44.67;100772.09;4532303;28;20026;-62
2023/05/07 06:43:17;;;;;;;3.90;3.50;;;;;;;21.95;45.40;100776.56;4522501;28;20800;-62
2023/05/07 06:45:36;;;;;;;3.88;3.58;;;;;;;21.96;45.09;100778.22;4533087;28;20502;-62
2023/05/07 06:47:48;;;;;;;4.05;3.65;;;;;;;21.96;45.14;100783.97;4532035;28;20037;-62
2023/05/07 06:49:58;;;;;;;4.10;3.70;;;;;;;21.94;45.24;100791.31;4530322;28;20620;-62
2023/05/07 06:52:13;;;;;;;3.95;3.53;;;;;;;21.94;44.58;100792.16;4531667;28;20658;-63
2023/05/07 06:54:24;;;;;;;4.10;3.60;;;;;;;21.94;45.12;100782.69;4549453;28;20033;-62
2023/05/07 06:56:34;;;;;;;3.55;3.25;;;;;;;21.94;44.88;100785.56;4533847;28;20037;-62
2023/05/07 06:58:46;;;;;;;3.33;3.03;;;;;;;21.92;45.04;100785.94;4534958;28;20579;-62
2023/05/07 07:00:57;;;;;;;3.85;3.45;;;;;;;21.90;45.39;100785.47;4535637;28;20577;-62
2023/05/07 07:03:08;;;;;;;3.85;3.45;;;;;;;21.88;45.22;100787.88;4519977;28;20033;-62
2023/05/07 07:05:19;;;;;;;4.05;3.50;;;;;;;21.94;45.12;100795.03;4534390;28;20523;-62
2023/05/07 07:07:30;;;;;;;4.00;3.53;;;;;;;21.93;45.45;100793.34;4525451;28;20126;-62
2023/05/07 07:09:40;;;;;;;3.80;3.28;;;;;;;21.93;45.42;100798.25;4534862;28;20028;-62
2023/05/07 07:11:52;;;;;;;3.65;3.30;;;;;;;21.86;45.32;100781.69;4540348;28;20512;-62
2023/05/07 07:14:04;;;;;;;4.35;3.53;;;;;;;21.91;45.37;100789.19;4537809;28;20485;-62
2023/05/07 07:16:18;;;;;;;3.78;3.38;;;;;;;21.92;45.38;100788.81;4537044;28;20864;-62
2023/05/07 07:18:30;;;;;;;3.55;3.25;;;;;;;21.92;45.70;100788.81;4533654;28;20029;-65
2023/05/07 07:20:44;;;;;;;3.35;3.05;;;;;;;21.91;46.04;100786.31;4534395;28;20314;-63
2023/05/07 07:22:54;;;;;;;3.60;3.20;;;;;;;21.88;45.92;100785.00;4536429;28;20588;-63
2023/05/07 07:25:05;;;;;;;3.40;3.10;;;;;;;21.89;45.60;100789.56;4536026;28;20455;-63
2023/05/07 07:27:16;;;;;;;3.78;2.97;;;;;;;21.90;45.71;100785.47;4551593;28;20115;-64
2023/05/07 07:29:26;;;;;;;3.38;3.08;;;;;;;21.92;45.60;100785.09;4539606;28;20069;-63
2023/05/07 07:31:37;;;;;;;0.50;0.50;;;;;;;22.04;47.71;100791.56;4542391;28;20610;-64
2023/05/07 07:33:49;;;;;;;0.47;0.40;;;;;;;22.11;47.78;100788.88;4536415;28;20480;-63
2023/05/07 07:36:00;;;;;;;2.00;1.80;;;;;;;21.88;45.36;100770.63;4534815;28;20769;-65
2023/05/07 07:38:10;;;;;;;3.45;3.15;;;;;;;21.93;45.75;100778.13;4536699;28;20068;-65
2023/05/07 07:40:21;;;;;;;3.20;2.90;;;;;;;21.93;46.09;100796.22;4535296;28;20064;-63
2023/05/07 07:42:32;;;;;;;3.30;3.00;;;;;;;21.90;45.33;100802.69;4542669;28;20713;-65
2023/05/07 07:44:43;;;;;;;3.00;2.70;;;;;;;21.76;45.39;100776.47;4539937;28;20024;-64
2023/05/07 07:46:55;;;;;;;3.22;2.92;;;;;;;21.93;45.58;100801.13;4541642;28;20027;-63
2023/05/07 07:49:07;;;;;;;3.70;3.10;;;;;;;21.88;45.76;100790.75;4532978;28;20041;-64
2023/05/07 07:51:18;;;;;;;3.45;3.03;;;;;;;21.92;45.86;100803.19;4525591;28;20596;-63
2023/05/07 07:53:31;;;;;;;3.45;2.95;;;;;;;21.92;46.01;100793.72;4535139;28;20108;-62
2023/05/07 07:55:42;;;;;;;3.25;2.95;;;;;;;21.90;45.79;100793.25;4536072;28;20032;-61
2023/05/07 07:57:54;;;;;;;3.30;3.00;;;;;;;21.90;45.75;100794.09;4553281;28;20643;-63
2023/05/07 08:00:07;;;;;;;3.63;3.20;;;;;;;21.89;46.07;100801.03;4538054;28;20067;-62
2023/05/07 08:02:27;;;;;;;3.22;2.92;;;;;;;21.90;45.93;100793.25;4535807;28;20140;-62
2023/05/07 08:04:37;;;;;;;3.40;3.10;;;;;;;21.88;45.88;100790.75;4551969;28;20071;-62
2023/05/07 08:06:49;;;;;;;3.30;3.00;;;;;;;21.88;45.89;100799.34;4535641;28;20037;-62
2023/05/07 08:09:00;;;;;;;3.28;2.95;;;;;;;21.90;45.91;100799.81;4550244;28;20516;-62
2023/05/07 08:11:11;;;;;;;3.15;2.85;;;;;;;21.89;45.93;100806.78;4535480;28;20080;-62
2023/05/07 08:13:21;;;;;;;3.25;2.83;;;;;;;21.90;46.30;100808.44;4550821;28;20578;-62
2023/05/07 08:15:32;;;;;;;3.70;2.80;;;;;;;21.89;46.10;100806.78;4551287;28;20029;-62
2023/05/07 08:17:43;;;;;;;3.28;2.95;;;;;;;21.90;46.64;100802.69;4551325;28;20047;-63
2023/05/07 08:19:53;;;;;;;3.20;2.90;;;;;;;21.87;46.13;100806.31;4532476;28;20121;-62
2023/05/07 08:22:05;;;;;;;2.88;2.60;;;;;;;21.89;46.04;100812.53;4549311;28;20119;-62
2023/05/07 08:24:16;;;;;;;3.13;2.83;;;;;;;21.92;46.58;100814.66;4532439;28;20983;-62
2023/05/07 08:26:27;;;;;;;3.00;2.53;;;;;;;21.82;46.76;100795.09;4533730;28;20173;-62
2023/05/07 08:28:37;;;;;;;3.03;2.72;;;;;;;21.90;46.24;100796.97;4551077;28;20024;-62
2023/05/07 08:30:47;;;;;;;3.47;2.67;;;;;;;21.90;46.01;100802.69;4531099;28;20049;-62
2023/05/07 08:32:58;;;;;;;2.25;2.00;;;;;;;21.78;46.61;100784.72;4549249;28;20037;-62
2023/05/07 08:35:09;;;;;;;2.83;2.40;;;;;;;21.91;47.74;100800.69;4533625;28;20045;-62
2023/05/07 08:37:19;;;;;;;2.60;2.35;;;;;;;21.88;47.15;100805.09;4527965;28;20053;-63
2023/05/07 08:39:30;;;;;;;2.20;2.00;;;;;;;21.86;47.25;100803.81;4523887;28;20056;-62
2023/05/07 08:41:46;;;;;;;2.55;2.22;;;;;;;21.90;47.04;100802.69;4550542;28;20249;-62
2023/05/07 08:43:58;;;;;;;;;;;;;;;21.91;47.19;100812.97;4549269;28;20056;-62
2023/05/07 08:46:11;;;;;;;2.45;2.25;;;;;;;21.91;46.87;100815.03;4536664;28;19924;-63
2023/05/07 08:48:27;;;;;;;2.63;2.33;;;;;;;21.91;46.75;100812.16;4533462;28;20136;-62
2023/05/07 08:50:44;;;;;;;2.30;2.10;;;;;;;21.89;47.00;100809.66;4535102;28;20695;-62
2023/05/07 08:52:56;;;;;;;3.13;2.65;;;;;;;21.85;47.00;100800.09;4533643;28;20044;-62
2023/05/07 08:55:08;;;;;;;3.28;2.53;;;;;;;21.89;46.98;100818.28;4553085;27;20035;-62
2023/05/07 08:57:20;;;;;;;2.42;2.08;;;;;;;21.92;47.38;100820.41;4534147;28;20036;-63
2023/05/07 08:59:31;;;;;;;3.20;2.15;;;;;;;21.90;48.15;100825.69;4533465;28;20104;-64
2023/05/07 09:01:41;;;;;;;2.55;2.25;;;;;;;21.94;48.66;100826.63;4536434;28;20479;-68
2023/05/07 09:03:53;;;;;;;2.80;2.42;;;;;;;21.95;48.39;100822.53;4532258;28;20056;-63
2023/05/07 09:06:05;;;;;;;2.40;2.20;;;;;;;21.92;47.74;100820.41;4519088;28;20044;-63
2023/05/07 09:08:16;;;;;;;2.67;2.10;;;;;;;21.92;48.00;100820.41;4533328;28;20028;-63
2023/05/07 09:10:27;;;;;;;2.88;2.30;;;;;;;21.93;48.38;100812.59;4550007;28;20043;-63
2023/05/07 09:12:39;;;;;;;2.60;2.28;;;;;;;21.96;48.20;100811.91;4550435;28;20024;-63
2023/05/07 09:14:50;;;;;;;2.47;2.25;;;;;;;21.97;48.34;100817.28;4523461;28;20075;-62
2023/05/07 09:17:01;;;;;;;2.72;2.45;;;;;;;21.98;47.43;100816.06;4534989;28;20668;-63
2023/05/07 09:19:12;;;;;;;3.35;2.50;;;;;;;21.93;47.34;100813.47;4529889;28;20801;-62
2023/05/07 09:21:27;;;;;;;2.85;2.55;;;;;;;21.96;47.65;100815.59;4530912;28;21225;-63
2023/05/07 09:23:50;;;;;;;2.42;2.22;;;;;;;21.96;47.74;100806.97;4533581;28;21246;-62
2023/05/07 09:26:02;;;;;;;3.28;2.53;;;;;;;21.99;47.21;100814.84;4530741;28;20040;-62
2023/05/07 09:28:14;;;;;;;2.70;2.50;;;;;;;21.95;47.78;100813.09;4534821;28;20060;-62
2023/05/07 09:30:32;;;;;;;3.00;2.70;;;;;;;22.00;47.59;100822.28;4534469;28;20045;-63
2023/05/07 09:32:44;;;;;;;3.25;2.72;;;;;;;22.01;47.37;100821.06;4534135;28;20634;-62
2023/05/07 09:35:00;;;;;;;3.33;2.65;;;;;;;22.00;47.12;100819.41;4532820;28;20596;-63
2023/05/07 09:37:13;;;;;;;3.00;2.70;;;;;;;22.01;47.41;100817.34;4510561;28;20025;-63
2023/05/07 09:39:23;;;;;;;3.03;2.70;;;;;;;21.98;47.94;100816.06;4515754;28;20033;-63
2023/05/07 09:41:44;;;;;;;3.42;2.78;;;;;;;21.94;47.71;100814.28;4536287;28;20025;-63
2023/05/07 09:44:00;;;;;;;3.22;2.67;;;;;;;21.96;47.00;100806.16;4534322;28;20941;-64
2023/05/07 09:46:16;;;;;;;3.30;2.75;;;;;;;21.98;47.39;100810.31;4537040;28;20226;-62
2023/05/07 09:48:38;;;;;;;2.55;2.33;;;;;;;22.00;46.78;100813.66;4539916;28;20143;-62
2023/05/07 09:50:56;;;;;;;2.85;2.60;;;;;;;21.99;47.50;100809.09;4536907;28;20045;-62
2023/05/07 09:53:09;;;;;;;3.45;2.90;;;;;;;22.01;47.06;100815.31;4523151;28;20032;-62
2023/05/07 09:55:21;;;;;;;2.78;2.58;;;;;;;21.97;47.62;100808.66;4530460;28;20037;-63
2023/05/07 09:57:33;;;;;;;2.80;2.50;;;;;;;22.02;47.00;100819.03;4547096;28;21048;-62
2023/05/07 09:59:50;;;;;;;2.80;2.50;;;;;;;21.98;47.29;100813.19;4523387;28;20041;-63
2023/05/07 10:02:03;;;;;;;2.92;2.50;;;;;;;22.01;47.11;100814.47;4539593;28;20032;-63
2023/05/07 10:04:14;;;;;;;2.80;2.50;;;;;;;22.02;47.80;100822.72;4535339;28;20592;-63
2023/05/07 10:06:27;;;;;;;2.95;2.65;;;;;;;22.01;48.29;100821.06;4548066;28;20147;-62
2023/05/07 10:08:38;;;;;;;2.78;2.55;;;;;;;22.01;48.29;100818.19;4551443;28;20024;-63
2023/05/07 10:10:50;;;;;;;2.75;2.50;;;;;;;22.03;48.28;100824.41;4535343;28;20037;-63
2023/05/07 10:13:09;;;;;;;2.83;2.53;;;;;;;22.03;48.09;100826.44;4540862;28;20608;-63